sensor_id;sensor_type;location;lat;lon;timestamp;P1;durP1;ratioP1;P2;durP2;ratioP2
27383;SDS011;14851;51.166;4.760;2023-04-03T00:01:04;8.10;;;5.30;;
27383;SDS011;14851;51.166;4.760;2023-04-03T00:03:32;7.35;;;5.07;;
27383;SDS011;14851;51.166;4.760;2023-04-03T00:06:04;9.60;;;5.55;;
27383;SDS011;14851;51.166;4.760;2023-04-03T00:08:32;8.40;;;5.43;;
27383;SDS011;14851;51.166;4.760;2023-04-03T00:10:58;9.65;;;5.70;;
27383;SDS011;14851;51.166;4.760;2023-04-03T00:13:27;9.82;;;5.13;;
27383;SDS011;14851;51.166;4.760;2023-04-03T00:15:54;8.23;;;5.50;;
27383;SDS011;14851;51.166;4.760;2023-04-03T00:18:21;7.13;;;5.53;;
27383;SDS011;14851;51.166;4.760;2023-04-03T00:20:48;8.77;;;5.40;;
27383;SDS011;14851;51.166;4.760;2023-04-03T00:23:14;8.38;;;5.72;;
27383;SDS011;14851;51.166;4.760;2023-04-03T00:25:43;6.82;;;5.05;;
27383;SDS011;14851;51.166;4.760;2023-04-03T00:28:11;8.80;;;5.65;;
27383;SDS011;14851;51.166;4.760;2023-04-03T00:30:37;5.70;;;4.72;;
27383;SDS011;14851;51.166;4.760;2023-04-03T00:33:03;8.63;;;5.28;;
27383;SDS011;14851;51.166;4.760;2023-04-03T00:35:29;7.40;;;5.65;;
27383;SDS011;14851;51.166;4.760;2023-04-03T00:40:25;8.38;;;5.57;;
27383;SDS011;14851;51.166;4.760;2023-04-03T00:43:01;9.00;;;6.47;;
27383;SDS011;14851;51.166;4.760;2023-04-03T00:45:38;7.45;;;5.40;;
27383;SDS011;14851;51.166;4.760;2023-04-03T00:48:10;7.43;;;5.88;;
27383;SDS011;14851;51.166;4.760;2023-04-03T00:50:41;7.40;;;5.38;;
27383;SDS011;14851;51.166;4.760;2023-04-03T00:53:09;7.88;;;6.30;;
27383;SDS011;14851;51.166;4.760;2023-04-03T00:55:38;8.05;;;5.95;;
27383;SDS011;14851;51.166;4.760;2023-04-03T00:58:08;8.27;;;5.80;;
27383;SDS011;14851;51.166;4.760;2023-04-03T01:00:35;6.68;;;5.53;;
27383;SDS011;14851;51.166;4.760;2023-04-03T01:03:07;8.38;;;6.00;;
27383;SDS011;14851;51.166;4.760;2023-04-03T01:05:38;8.18;;;5.60;;
27383;SDS011;14851;51.166;4.760;2023-04-03T01:08:07;6.75;;;5.75;;
27383;SDS011;14851;51.166;4.760;2023-04-03T01:10:33;8.85;;;6.43;;
27383;SDS011;14851;51.166;4.760;2023-04-03T01:12:59;8.73;;;6.75;;
27383;SDS011;14851;51.166;4.760;2023-04-03T01:15:31;10.83;;;6.60;;
27383;SDS011;14851;51.166;4.760;2023-04-03T01:18:00;8.38;;;5.75;;
27383;SDS011;14851;51.166;4.760;2023-04-03T01:25:57;9.13;;;6.25;;
27383;SDS011;14851;51.166;4.760;2023-04-03T01:28:24;8.98;;;6.50;;
27383;SDS011;14851;51.166;4.760;2023-04-03T01:33:52;8.60;;;6.13;;
27383;SDS011;14851;51.166;4.760;2023-04-03T01:36:22;8.80;;;5.97;;
27383;SDS011;14851;51.166;4.760;2023-04-03T01:38:52;9.30;;;6.68;;
27383;SDS011;14851;51.166;4.760;2023-04-03T01:41:22;9.57;;;6.50;;
27383;SDS011;14851;51.166;4.760;2023-04-03T01:43:50;7.18;;;5.85;;
27383;SDS011;14851;51.166;4.760;2023-04-03T01:46:16;9.82;;;6.30;;
27383;SDS011;14851;51.166;4.760;2023-04-03T01:48:43;8.40;;;6.63;;
27383;SDS011;14851;51.166;4.760;2023-04-03T01:51:10;11.18;;;6.97;;
27383;SDS011;14851;51.166;4.760;2023-04-03T01:53:41;7.68;;;6.53;;
27383;SDS011;14851;51.166;4.760;2023-04-03T01:56:09;8.80;;;6.50;;
27383;SDS011;14851;51.166;4.760;2023-04-03T01:58:35;9.23;;;6.22;;
27383;SDS011;14851;51.166;4.760;2023-04-03T02:01:02;11.40;;;6.60;;
27383;SDS011;14851;51.166;4.760;2023-04-03T02:03:31;8.57;;;6.20;;
27383;SDS011;14851;51.166;4.760;2023-04-03T02:05:57;9.07;;;5.75;;
27383;SDS011;14851;51.166;4.760;2023-04-03T02:08:26;10.23;;;6.57;;
27383;SDS011;14851;51.166;4.760;2023-04-03T02:10:51;9.55;;;6.60;;
27383;SDS011;14851;51.166;4.760;2023-04-03T02:13:17;8.80;;;7.20;;
27383;SDS011;14851;51.166;4.760;2023-04-03T02:15:44;8.38;;;7.05;;
27383;SDS011;14851;51.166;4.760;2023-04-03T02:18:16;8.38;;;6.65;;
27383;SDS011;14851;51.166;4.760;2023-04-03T02:20:42;9.55;;;6.70;;
27383;SDS011;14851;51.166;4.760;2023-04-03T02:23:08;7.68;;;6.05;;
27383;SDS011;14851;51.166;4.760;2023-04-03T02:25:34;9.38;;;6.70;;
27383;SDS011;14851;51.166;4.760;2023-04-03T02:28:00;10.52;;;6.82;;
27383;SDS011;14851;51.166;4.760;2023-04-03T02:30:26;12.05;;;6.97;;
27383;SDS011;14851;51.166;4.760;2023-04-03T02:32:52;9.60;;;6.75;;
27383;SDS011;14851;51.166;4.760;2023-04-03T02:35:21;9.65;;;6.88;;
27383;SDS011;14851;51.166;4.760;2023-04-03T02:37:50;9.93;;;6.32;;
27383;SDS011;14851;51.166;4.760;2023-04-03T02:40:16;10.10;;;6.70;;
27383;SDS011;14851;51.166;4.760;2023-04-03T02:42:49;9.43;;;6.47;;
27383;SDS011;14851;51.166;4.760;2023-04-03T02:45:19;8.52;;;7.03;;
27383;SDS011;14851;51.166;4.760;2023-04-03T02:47:48;10.88;;;7.22;;
27383;SDS011;14851;51.166;4.760;2023-04-03T02:50:22;7.78;;;6.40;;
27383;SDS011;14851;51.166;4.760;2023-04-03T02:52:48;11.43;;;7.00;;
27383;SDS011;14851;51.166;4.760;2023-04-03T02:55:14;8.45;;;6.65;;
27383;SDS011;14851;51.166;4.760;2023-04-03T02:57:44;10.95;;;7.03;;
27383;SDS011;14851;51.166;4.760;2023-04-03T03:00:13;11.88;;;7.10;;
27383;SDS011;14851;51.166;4.760;2023-04-03T03:02:40;9.98;;;7.00;;
27383;SDS011;14851;51.166;4.760;2023-04-03T03:05:06;9.30;;;7.47;;
27383;SDS011;14851;51.166;4.760;2023-04-03T03:07:33;11.80;;;7.25;;
27383;SDS011;14851;51.166;4.760;2023-04-03T03:09:59;9.93;;;6.85;;
27383;SDS011;14851;51.166;4.760;2023-04-03T03:12:31;8.82;;;7.15;;
27383;SDS011;14851;51.166;4.760;2023-04-03T03:14:59;8.13;;;7.28;;
27383;SDS011;14851;51.166;4.760;2023-04-03T03:17:25;10.95;;;7.30;;
27383;SDS011;14851;51.166;4.760;2023-04-03T03:19:51;8.90;;;7.18;;
27383;SDS011;14851;51.166;4.760;2023-04-03T03:22:21;11.00;;;6.90;;
27383;SDS011;14851;51.166;4.760;2023-04-03T03:24:50;9.68;;;6.70;;
27383;SDS011;14851;51.166;4.760;2023-04-03T03:27:16;7.85;;;6.70;;
27383;SDS011;14851;51.166;4.760;2023-04-03T03:29:43;9.98;;;6.70;;
27383;SDS011;14851;51.166;4.760;2023-04-03T03:32:14;9.00;;;7.18;;
27383;SDS011;14851;51.166;4.760;2023-04-03T03:34:40;8.18;;;7.18;;
27383;SDS011;14851;51.166;4.760;2023-04-03T03:37:06;9.23;;;7.20;;
27383;SDS011;14851;51.166;4.760;2023-04-03T03:39:33;9.93;;;8.05;;
27383;SDS011;14851;51.166;4.760;2023-04-03T03:41:59;10.95;;;7.38;;
27383;SDS011;14851;51.166;4.760;2023-04-03T03:44:25;11.00;;;8.50;;
27383;SDS011;14851;51.166;4.760;2023-04-03T03:46:53;13.00;;;8.40;;
27383;SDS011;14851;51.166;4.760;2023-04-03T03:49:20;15.05;;;7.75;;
27383;SDS011;14851;51.166;4.760;2023-04-03T03:51:49;11.13;;;7.80;;
27383;SDS011;14851;51.166;4.760;2023-04-03T03:54:17;9.25;;;7.78;;
27383;SDS011;14851;51.166;4.760;2023-04-03T03:56:43;12.07;;;8.07;;
27383;SDS011;14851;51.166;4.760;2023-04-03T03:59:12;12.38;;;7.80;;
27383;SDS011;14851;51.166;4.760;2023-04-03T04:01:40;8.55;;;7.72;;
27383;SDS011;14851;51.166;4.760;2023-04-03T04:04:07;15.32;;;8.45;;
27383;SDS011;14851;51.166;4.760;2023-04-03T04:06:36;11.65;;;8.75;;
27383;SDS011;14851;51.166;4.760;2023-04-03T04:09:04;12.40;;;8.38;;
27383;SDS011;14851;51.166;4.760;2023-04-03T04:11:30;10.00;;;8.20;;
27383;SDS011;14851;51.166;4.760;2023-04-03T04:13:58;9.73;;;7.68;;
27383;SDS011;14851;51.166;4.760;2023-04-03T04:16:27;11.38;;;8.02;;
27383;SDS011;14851;51.166;4.760;2023-04-03T04:18:55;11.80;;;8.25;;
27383;SDS011;14851;51.166;4.760;2023-04-03T04:21:23;10.98;;;8.50;;
27383;SDS011;14851;51.166;4.760;2023-04-03T04:23:51;9.90;;;8.27;;
27383;SDS011;14851;51.166;4.760;2023-04-03T04:26:19;10.20;;;8.25;;
27383;SDS011;14851;51.166;4.760;2023-04-03T04:28:46;10.45;;;8.45;;
27383;SDS011;14851;51.166;4.760;2023-04-03T04:31:12;12.57;;;8.40;;
27383;SDS011;14851;51.166;4.760;2023-04-03T04:33:41;11.93;;;8.75;;
27383;SDS011;14851;51.166;4.760;2023-04-03T04:36:10;10.02;;;8.57;;
27383;SDS011;14851;51.166;4.760;2023-04-03T04:38:36;9.63;;;8.27;;
27383;SDS011;14851;51.166;4.760;2023-04-03T04:41:04;8.88;;;7.78;;
27383;SDS011;14851;51.166;4.760;2023-04-03T04:43:30;10.90;;;8.70;;
27383;SDS011;14851;51.166;4.760;2023-04-03T04:46:16;14.07;;;8.98;;
27383;SDS011;14851;51.166;4.760;2023-04-03T04:48:50;10.65;;;8.60;;
27383;SDS011;14851;51.166;4.760;2023-04-03T04:51:18;10.98;;;8.60;;
27383;SDS011;14851;51.166;4.760;2023-04-03T04:53:45;11.95;;;8.63;;
27383;SDS011;14851;51.166;4.760;2023-04-03T04:56:13;12.40;;;8.50;;
27383;SDS011;14851;51.166;4.760;2023-04-03T04:58:40;10.98;;;8.50;;
27383;SDS011;14851;51.166;4.760;2023-04-03T05:01:07;11.75;;;8.45;;
27383;SDS011;14851;51.166;4.760;2023-04-03T05:03:41;12.90;;;8.52;;
27383;SDS011;14851;51.166;4.760;2023-04-03T05:06:07;11.93;;;8.30;;
27383;SDS011;14851;51.166;4.760;2023-04-03T05:08:34;13.30;;;9.23;;
27383;SDS011;14851;51.166;4.760;2023-04-03T05:11:01;14.82;;;9.80;;
27383;SDS011;14851;51.166;4.760;2023-04-03T05:13:28;17.75;;;9.70;;
27383;SDS011;14851;51.166;4.760;2023-04-03T05:15:56;15.85;;;9.27;;
27383;SDS011;14851;51.166;4.760;2023-04-03T05:18:22;15.25;;;10.07;;
27383;SDS011;14851;51.166;4.760;2023-04-03T05:20:50;13.40;;;10.00;;
27383;SDS011;14851;51.166;4.760;2023-04-03T05:23:17;14.05;;;10.07;;
27383;SDS011;14851;51.166;4.760;2023-04-03T05:28:26;10.98;;;9.38;;
27383;SDS011;14851;51.166;4.760;2023-04-03T05:30:54;13.38;;;9.75;;
27383;SDS011;14851;51.166;4.760;2023-04-03T05:33:29;13.00;;;9.52;;
27383;SDS011;14851;51.166;4.760;2023-04-03T05:36:03;12.98;;;10.15;;
27383;SDS011;14851;51.166;4.760;2023-04-03T05:38:35;10.60;;;9.45;;
27383;SDS011;14851;51.166;4.760;2023-04-03T05:41:04;12.57;;;9.75;;
27383;SDS011;14851;51.166;4.760;2023-04-03T05:43:31;14.75;;;10.23;;
27383;SDS011;14851;51.166;4.760;2023-04-03T05:45:58;16.02;;;9.15;;
27383;SDS011;14851;51.166;4.760;2023-04-03T05:48:28;12.52;;;9.25;;
27383;SDS011;14851;51.166;4.760;2023-04-03T05:51:00;15.52;;;9.90;;
27383;SDS011;14851;51.166;4.760;2023-04-03T05:53:29;13.15;;;9.68;;
27383;SDS011;14851;51.166;4.760;2023-04-03T05:56:01;11.73;;;9.52;;
27383;SDS011;14851;51.166;4.760;2023-04-03T05:58:33;12.50;;;9.02;;
27383;SDS011;14851;51.166;4.760;2023-04-03T06:01:00;19.73;;;9.38;;
27383;SDS011;14851;51.166;4.760;2023-04-03T06:03:27;12.75;;;8.90;;
27383;SDS011;14851;51.166;4.760;2023-04-03T06:05:53;11.70;;;8.90;;
27383;SDS011;14851;51.166;4.760;2023-04-03T06:08:19;10.73;;;8.02;;
27383;SDS011;14851;51.166;4.760;2023-04-03T06:10:45;12.55;;;9.13;;
27383;SDS011;14851;51.166;4.760;2023-04-03T06:13:11;11.18;;;8.68;;
27383;SDS011;14851;51.166;4.760;2023-04-03T06:15:40;10.80;;;7.67;;
27383;SDS011;14851;51.166;4.760;2023-04-03T06:18:08;10.00;;;7.75;;
27383;SDS011;14851;51.166;4.760;2023-04-03T06:20:35;13.23;;;7.57;;
27383;SDS011;14851;51.166;4.760;2023-04-03T06:23:03;10.85;;;6.55;;
27383;SDS011;14851;51.166;4.760;2023-04-03T06:25:31;9.77;;;6.68;;
27383;SDS011;14851;51.166;4.760;2023-04-03T06:27:57;12.20;;;6.78;;
27383;SDS011;14851;51.166;4.760;2023-04-03T06:30:23;11.18;;;6.72;;
27383;SDS011;14851;51.166;4.760;2023-04-03T06:32:49;8.32;;;6.53;;
27383;SDS011;14851;51.166;4.760;2023-04-03T06:35:15;7.65;;;5.55;;
27383;SDS011;14851;51.166;4.760;2023-04-03T06:40:24;10.25;;;5.03;;
27383;SDS011;14851;51.166;4.760;2023-04-03T06:42:51;12.40;;;6.30;;
27383;SDS011;14851;51.166;4.760;2023-04-03T06:45:19;10.80;;;5.80;;
27383;SDS011;14851;51.166;4.760;2023-04-03T06:47:45;10.85;;;6.22;;
27383;SDS011;14851;51.166;4.760;2023-04-03T06:50:12;5.15;;;3.65;;
27383;SDS011;14851;51.166;4.760;2023-04-03T06:52:40;13.50;;;5.00;;
27383;SDS011;14851;51.166;4.760;2023-04-03T06:55:07;10.32;;;5.15;;
27383;SDS011;14851;51.166;4.760;2023-04-03T06:57:35;8.10;;;4.57;;
27383;SDS011;14851;51.166;4.760;2023-04-03T07:00:02;12.07;;;5.22;;
27383;SDS011;14851;51.166;4.760;2023-04-03T07:02:30;7.88;;;4.60;;
27383;SDS011;14851;51.166;4.760;2023-04-03T07:04:56;10.63;;;4.82;;
27383;SDS011;14851;51.166;4.760;2023-04-03T07:07:23;7.28;;;4.13;;
27383;SDS011;14851;51.166;4.760;2023-04-03T07:09:49;6.57;;;4.45;;
27383;SDS011;14851;51.166;4.760;2023-04-03T07:12:16;9.20;;;3.92;;
27383;SDS011;14851;51.166;4.760;2023-04-03T07:14:42;5.90;;;3.65;;
27383;SDS011;14851;51.166;4.760;2023-04-03T07:17:07;10.77;;;4.55;;
27383;SDS011;14851;51.166;4.760;2023-04-03T07:19:33;6.90;;;3.90;;
27383;SDS011;14851;51.166;4.760;2023-04-03T07:21:59;9.43;;;3.92;;
27383;SDS011;14851;51.166;4.760;2023-04-03T07:24:28;8.50;;;4.13;;
27383;SDS011;14851;51.166;4.760;2023-04-03T07:26:54;8.55;;;4.18;;
27383;SDS011;14851;51.166;4.760;2023-04-03T07:29:21;9.52;;;4.22;;
27383;SDS011;14851;51.166;4.760;2023-04-03T07:31:47;8.70;;;4.40;;
27383;SDS011;14851;51.166;4.760;2023-04-03T07:34:13;6.60;;;3.95;;
27383;SDS011;14851;51.166;4.760;2023-04-03T07:36:38;8.43;;;3.45;;
27383;SDS011;14851;51.166;4.760;2023-04-03T07:39:04;9.98;;;4.18;;
27383;SDS011;14851;51.166;4.760;2023-04-03T07:41:32;5.88;;;2.88;;
27383;SDS011;14851;51.166;4.760;2023-04-03T07:43:58;9.63;;;4.18;;
27383;SDS011;14851;51.166;4.760;2023-04-03T07:46:24;6.82;;;3.50;;
27383;SDS011;14851;51.166;4.760;2023-04-03T07:54:14;5.22;;;2.65;;
27383;SDS011;14851;51.166;4.760;2023-04-03T07:56:40;6.47;;;3.25;;
27383;SDS011;14851;51.166;4.760;2023-04-03T07:59:09;7.13;;;2.92;;
27383;SDS011;14851;51.166;4.760;2023-04-03T08:01:36;9.73;;;3.10;;
27383;SDS011;14851;51.166;4.760;2023-04-03T08:04:04;6.63;;;3.17;;
27383;SDS011;14851;51.166;4.760;2023-04-03T08:06:31;5.30;;;2.50;;
27383;SDS011;14851;51.166;4.760;2023-04-03T08:09:02;4.82;;;2.83;;
27383;SDS011;14851;51.166;4.760;2023-04-03T08:11:29;6.75;;;2.80;;
27383;SDS011;14851;51.166;4.760;2023-04-03T08:13:56;4.32;;;2.30;;
27383;SDS011;14851;51.166;4.760;2023-04-03T08:16:24;3.30;;;1.98;;
27383;SDS011;14851;51.166;4.760;2023-04-03T08:18:52;7.85;;;2.50;;
27383;SDS011;14851;51.166;4.760;2023-04-03T08:21:19;5.88;;;2.75;;
27383;SDS011;14851;51.166;4.760;2023-04-03T08:23:47;5.30;;;2.42;;
27383;SDS011;14851;51.166;4.760;2023-04-03T08:26:16;7.43;;;2.65;;
27383;SDS011;14851;51.166;4.760;2023-04-03T08:28:47;7.97;;;2.50;;
27383;SDS011;14851;51.166;4.760;2023-04-03T08:31:14;7.40;;;2.55;;
27383;SDS011;14851;51.166;4.760;2023-04-03T08:33:46;6.70;;;2.00;;
27383;SDS011;14851;51.166;4.760;2023-04-03T08:38:45;5.05;;;1.75;;
27383;SDS011;14851;51.166;4.760;2023-04-03T08:41:13;4.50;;;2.00;;
27383;SDS011;14851;51.166;4.760;2023-04-03T08:49:23;6.30;;;2.03;;
27383;SDS011;14851;51.166;4.760;2023-04-03T08:51:56;5.32;;;1.85;;
27383;SDS011;14851;51.166;4.760;2023-04-03T08:54:28;8.68;;;2.67;;
27383;SDS011;14851;51.166;4.760;2023-04-03T08:57:09;4.82;;;1.73;;
27383;SDS011;14851;51.166;4.760;2023-04-03T08:59:37;6.15;;;2.05;;
27383;SDS011;14851;51.166;4.760;2023-04-03T09:02:13;5.03;;;2.28;;
27383;SDS011;14851;51.166;4.760;2023-04-03T09:05:17;7.03;;;1.77;;
27383;SDS011;14851;51.166;4.760;2023-04-03T09:07:46;5.85;;;1.85;;
27383;SDS011;14851;51.166;4.760;2023-04-03T09:10:18;4.35;;;1.95;;
27383;SDS011;14851;51.166;4.760;2023-04-03T09:12:57;4.20;;;1.48;;
27383;SDS011;14851;51.166;4.760;2023-04-03T09:15:30;3.55;;;1.63;;
27383;SDS011;14851;51.166;4.760;2023-04-03T09:17:59;6.85;;;2.00;;
27383;SDS011;14851;51.166;4.760;2023-04-03T09:20:39;6.75;;;2.08;;
27383;SDS011;14851;51.166;4.760;2023-04-03T09:23:21;4.78;;;1.98;;
27383;SDS011;14851;51.166;4.760;2023-04-03T09:26:18;4.80;;;1.48;;
27383;SDS011;14851;51.166;4.760;2023-04-03T09:28:58;5.80;;;2.05;;
27383;SDS011;14851;51.166;4.760;2023-04-03T09:31:35;5.72;;;1.92;;
27383;SDS011;14851;51.166;4.760;2023-04-03T09:34:04;4.18;;;1.17;;
27383;SDS011;14851;51.166;4.760;2023-04-03T09:36:48;5.30;;;1.75;;
27383;SDS011;14851;51.166;4.760;2023-04-03T09:39:23;5.40;;;1.92;;
27383;SDS011;14851;51.166;4.760;2023-04-03T09:44:40;5.38;;;2.13;;
27383;SDS011;14851;51.166;4.760;2023-04-03T09:47:19;4.10;;;1.50;;
27383;SDS011;14851;51.166;4.760;2023-04-03T09:52:42;2.35;;;1.40;;
27383;SDS011;14851;51.166;4.760;2023-04-03T09:55:46;5.18;;;1.45;;
27383;SDS011;14851;51.166;4.760;2023-04-03T09:58:22;3.88;;;1.70;;
27383;SDS011;14851;51.166;4.760;2023-04-03T10:00:54;5.40;;;1.70;;
27383;SDS011;14851;51.166;4.760;2023-04-03T10:03:27;3.58;;;1.30;;
27383;SDS011;14851;51.166;4.760;2023-04-03T10:05:55;4.22;;;1.35;;
27383;SDS011;14851;51.166;4.760;2023-04-03T10:08:27;6.45;;;1.45;;
27383;SDS011;14851;51.166;4.760;2023-04-03T10:11:06;4.20;;;1.27;;
27383;SDS011;14851;51.166;4.760;2023-04-03T10:13:54;5.20;;;1.40;;
27383;SDS011;14851;51.166;4.760;2023-04-03T10:24:25;5.10;;;1.50;;
27383;SDS011;14851;51.166;4.760;2023-04-03T10:27:07;2.72;;;1.25;;
27383;SDS011;14851;51.166;4.760;2023-04-03T10:38:18;4.25;;;1.30;;
27383;SDS011;14851;51.166;4.760;2023-04-03T10:44:10;3.83;;;1.13;;
27383;SDS011;14851;51.166;4.760;2023-04-03T10:46:58;2.97;;;1.20;;
27383;SDS011;14851;51.166;4.760;2023-04-03T10:50:20;3.28;;;1.27;;
27383;SDS011;14851;51.166;4.760;2023-04-03T10:52:24;1.50;;;0.65;;
27383;SDS011;14851;51.166;4.760;2023-04-03T10:57:49;1.35;;;0.68;;
27383;SDS011;14851;51.166;4.760;2023-04-03T11:00:21;2.75;;;0.60;;
27383;SDS011;14851;51.166;4.760;2023-04-03T11:02:55;2.35;;;0.90;;
27383;SDS011;14851;51.166;4.760;2023-04-03T11:08:28;2.85;;;1.10;;
27383;SDS011;14851;51.166;4.760;2023-04-03T11:11:05;5.97;;;0.90;;
27383;SDS011;14851;51.166;4.760;2023-04-03T11:16:21;3.17;;;0.82;;
27383;SDS011;14851;51.166;4.760;2023-04-03T11:18:52;2.65;;;0.90;;
27383;SDS011;14851;51.166;4.760;2023-04-03T11:21:47;1.83;;;0.65;;
27383;SDS011;14851;51.166;4.760;2023-04-03T11:24:25;2.70;;;0.90;;
27383;SDS011;14851;51.166;4.760;2023-04-03T11:26:52;2.88;;;0.80;;
27383;SDS011;14851;51.166;4.760;2023-04-03T11:29:22;1.23;;;0.70;;
27383;SDS011;14851;51.166;4.760;2023-04-03T11:34:37;2.65;;;0.88;;
27383;SDS011;14851;51.166;4.760;2023-04-03T11:37:33;2.30;;;0.80;;
27383;SDS011;14851;51.166;4.760;2023-04-03T11:40:16;3.20;;;1.00;;
27383;SDS011;14851;51.166;4.760;2023-04-03T11:42:48;2.05;;;0.73;;
27383;SDS011;14851;51.166;4.760;2023-04-03T12:00:47;1.70;;;0.80;;
27383;SDS011;14851;51.166;4.760;2023-04-03T12:05:54;3.65;;;1.00;;
27383;SDS011;14851;51.166;4.760;2023-04-03T12:13:35;4.53;;;1.25;;
27383;SDS011;14851;51.166;4.760;2023-04-03T12:16:04;1.73;;;1.00;;
27383;SDS011;14851;51.166;4.760;2023-04-03T12:29:13;3.08;;;1.15;;
27383;SDS011;14851;51.166;4.760;2023-04-03T12:31:49;2.63;;;1.02;;
27383;SDS011;14851;51.166;4.760;2023-04-03T12:37:09;2.50;;;0.90;;
27383;SDS011;14851;51.166;4.760;2023-04-03T12:45:29;2.47;;;1.15;;
27383;SDS011;14851;51.166;4.760;2023-04-03T12:48:12;2.58;;;1.13;;
27383;SDS011;14851;51.166;4.760;2023-04-03T12:50:45;3.10;;;1.27;;
27383;SDS011;14851;51.166;4.760;2023-04-03T12:53:18;7.03;;;1.40;;
27383;SDS011;14851;51.166;4.760;2023-04-03T12:55:47;2.58;;;1.00;;
27383;SDS011;14851;51.166;4.760;2023-04-03T12:58:26;2.58;;;1.00;;
27383;SDS011;14851;51.166;4.760;2023-04-03T13:00:59;3.28;;;1.00;;
27383;SDS011;14851;51.166;4.760;2023-04-03T13:03:34;2.45;;;0.95;;
27383;SDS011;14851;51.166;4.760;2023-04-03T13:06:04;2.20;;;1.00;;
27383;SDS011;14851;51.166;4.760;2023-04-03T13:08:31;2.92;;;1.10;;
27383;SDS011;14851;51.166;4.760;2023-04-03T13:13:26;3.40;;;1.63;;
27383;SDS011;14851;51.166;4.760;2023-04-03T13:15:52;2.58;;;0.88;;
27383;SDS011;14851;51.166;4.760;2023-04-03T13:18:23;3.50;;;1.13;;
27383;SDS011;14851;51.166;4.760;2023-04-03T13:20:59;2.65;;;1.17;;
27383;SDS011;14851;51.166;4.760;2023-04-03T13:23:29;2.22;;;0.80;;
27383;SDS011;14851;51.166;4.760;2023-04-03T13:25:59;2.80;;;1.05;;
27383;SDS011;14851;51.166;4.760;2023-04-03T13:28:28;3.00;;;0.80;;
27383;SDS011;14851;51.166;4.760;2023-04-03T13:33:25;1.17;;;0.70;;
27383;SDS011;14851;51.166;4.760;2023-04-03T13:35:54;3.03;;;0.90;;
27383;SDS011;14851;51.166;4.760;2023-04-03T13:38:31;2.60;;;1.00;;
27383;SDS011;14851;51.166;4.760;2023-04-03T13:41:00;2.73;;;1.00;;
27383;SDS011;14851;51.166;4.760;2023-04-03T13:43:32;4.15;;;1.00;;
27383;SDS011;14851;51.166;4.760;2023-04-03T13:53:43;4.28;;;0.90;;
27383;SDS011;14851;51.166;4.760;2023-04-03T13:58:55;4.07;;;1.40;;
27383;SDS011;14851;51.166;4.760;2023-04-03T14:03:58;2.70;;;1.30;;
27383;SDS011;14851;51.166;4.760;2023-04-03T14:06:26;7.80;;;1.23;;
27383;SDS011;14851;51.166;4.760;2023-04-03T14:08:52;3.33;;;0.88;;
27383;SDS011;14851;51.166;4.760;2023-04-03T14:11:26;2.33;;;0.88;;
27383;SDS011;14851;51.166;4.760;2023-04-03T14:13:54;2.50;;;0.90;;
27383;SDS011;14851;51.166;4.760;2023-04-03T14:16:24;7.47;;;1.17;;
27383;SDS011;14851;51.166;4.760;2023-04-03T14:18:54;2.65;;;1.00;;
27383;SDS011;14851;51.166;4.760;2023-04-03T14:21:22;2.72;;;0.80;;
27383;SDS011;14851;51.166;4.760;2023-04-03T14:23:48;2.50;;;1.08;;
27383;SDS011;14851;51.166;4.760;2023-04-03T14:26:22;3.20;;;1.15;;
27383;SDS011;14851;51.166;4.760;2023-04-03T14:28:52;3.30;;;1.17;;
27383;SDS011;14851;51.166;4.760;2023-04-03T14:31:21;3.63;;;0.80;;
27383;SDS011;14851;51.166;4.760;2023-04-03T14:33:48;2.72;;;0.90;;
27383;SDS011;14851;51.166;4.760;2023-04-03T14:36:15;2.67;;;1.23;;
27383;SDS011;14851;51.166;4.760;2023-04-03T14:38:50;2.58;;;0.80;;
27383;SDS011;14851;51.166;4.760;2023-04-03T14:41:18;2.03;;;0.98;;
27383;SDS011;14851;51.166;4.760;2023-04-03T14:43:47;3.63;;;1.00;;
27383;SDS011;14851;51.166;4.760;2023-04-03T14:46:15;2.28;;;1.02;;
27383;SDS011;14851;51.166;4.760;2023-04-03T14:48:44;2.85;;;1.13;;
27383;SDS011;14851;51.166;4.760;2023-04-03T14:51:11;2.00;;;1.02;;
27383;SDS011;14851;51.166;4.760;2023-04-03T14:53:38;2.20;;;1.20;;
27383;SDS011;14851;51.166;4.760;2023-04-03T14:56:13;3.42;;;0.98;;
27383;SDS011;14851;51.166;4.760;2023-04-03T14:58:42;2.92;;;0.90;;
27383;SDS011;14851;51.166;4.760;2023-04-03T15:01:11;3.20;;;1.00;;
27383;SDS011;14851;51.166;4.760;2023-04-03T15:03:39;1.73;;;0.90;;
27383;SDS011;14851;51.166;4.760;2023-04-03T15:06:05;5.30;;;1.40;;
27383;SDS011;14851;51.166;4.760;2023-04-03T15:08:31;2.00;;;0.90;;
27383;SDS011;14851;51.166;4.760;2023-04-03T15:10:57;4.22;;;1.35;;
27383;SDS011;14851;51.166;4.760;2023-04-03T15:13:23;2.30;;;1.20;;
27383;SDS011;14851;51.166;4.760;2023-04-03T15:15:50;2.50;;;0.93;;
27383;SDS011;14851;51.166;4.760;2023-04-03T15:18:19;3.95;;;1.05;;
27383;SDS011;14851;51.166;4.760;2023-04-03T15:20:47;4.53;;;1.17;;
27383;SDS011;14851;51.166;4.760;2023-04-03T15:23:14;3.00;;;1.10;;
27383;SDS011;14851;51.166;4.760;2023-04-03T15:25:44;3.25;;;1.10;;
27383;SDS011;14851;51.166;4.760;2023-04-03T15:31:01;1.98;;;0.82;;
27383;SDS011;14851;51.166;4.760;2023-04-03T15:33:31;3.65;;;1.23;;
27383;SDS011;14851;51.166;4.760;2023-04-03T15:35:58;3.53;;;1.23;;
27383;SDS011;14851;51.166;4.760;2023-04-03T15:38:24;4.97;;;1.20;;
27383;SDS011;14851;51.166;4.760;2023-04-03T15:40:50;5.97;;;1.27;;
27383;SDS011;14851;51.166;4.760;2023-04-03T15:43:16;4.13;;;1.23;;
27383;SDS011;14851;51.166;4.760;2023-04-03T15:45:42;4.65;;;1.60;;
27383;SDS011;14851;51.166;4.760;2023-04-03T15:48:09;5.35;;;1.45;;
27383;SDS011;14851;51.166;4.760;2023-04-03T15:50:36;2.42;;;1.27;;
27383;SDS011;14851;51.166;4.760;2023-04-03T15:53:02;3.45;;;1.48;;
27383;SDS011;14851;51.166;4.760;2023-04-03T15:55:29;10.88;;;1.88;;
27383;SDS011;14851;51.166;4.760;2023-04-03T15:57:56;4.50;;;1.55;;
27383;SDS011;14851;51.166;4.760;2023-04-03T16:00:26;2.80;;;1.20;;
27383;SDS011;14851;51.166;4.760;2023-04-03T16:02:53;5.07;;;1.17;;
27383;SDS011;14851;51.166;4.760;2023-04-03T16:05:23;3.35;;;1.30;;
27383;SDS011;14851;51.166;4.760;2023-04-03T16:07:51;2.63;;;1.50;;
27383;SDS011;14851;51.166;4.760;2023-04-03T16:10:18;1.73;;;1.00;;
27383;SDS011;14851;51.166;4.760;2023-04-03T16:12:44;7.20;;;1.60;;
27383;SDS011;14851;51.166;4.760;2023-04-03T16:15:12;2.80;;;1.33;;
27383;SDS011;14851;51.166;4.760;2023-04-03T16:17:38;7.07;;;1.27;;
27383;SDS011;14851;51.166;4.760;2023-04-03T16:20:06;4.43;;;1.38;;
27383;SDS011;14851;51.166;4.760;2023-04-03T16:22:33;2.17;;;0.88;;
27383;SDS011;14851;51.166;4.760;2023-04-03T16:24:59;4.22;;;1.48;;
27383;SDS011;14851;51.166;4.760;2023-04-03T16:27:25;4.00;;;1.52;;
27383;SDS011;14851;51.166;4.760;2023-04-03T16:29:55;4.55;;;1.30;;
27383;SDS011;14851;51.166;4.760;2023-04-03T16:32:25;5.60;;;1.50;;
27383;SDS011;14851;51.166;4.760;2023-04-03T16:34:54;4.85;;;1.25;;
27383;SDS011;14851;51.166;4.760;2023-04-03T16:37:19;3.80;;;1.40;;
27383;SDS011;14851;51.166;4.760;2023-04-03T16:39:45;2.75;;;1.40;;
27383;SDS011;14851;51.166;4.760;2023-04-03T16:42:14;3.70;;;1.30;;
27383;SDS011;14851;51.166;4.760;2023-04-03T16:44:40;2.42;;;1.40;;
27383;SDS011;14851;51.166;4.760;2023-04-03T16:47:06;3.58;;;1.40;;
27383;SDS011;14851;51.166;4.760;2023-04-03T16:49:33;2.13;;;1.10;;
27383;SDS011;14851;51.166;4.760;2023-04-03T16:52:00;4.43;;;1.80;;
27383;SDS011;14851;51.166;4.760;2023-04-03T16:54:27;3.67;;;1.60;;
27383;SDS011;14851;51.166;4.760;2023-04-03T16:56:55;5.40;;;1.60;;
27383;SDS011;14851;51.166;4.760;2023-04-03T16:59:21;3.00;;;1.10;;
27383;SDS011;14851;51.166;4.760;2023-04-03T17:01:50;3.85;;;1.50;;
27383;SDS011;14851;51.166;4.760;2023-04-03T17:04:16;2.83;;;1.30;;
27383;SDS011;14851;51.166;4.760;2023-04-03T17:06:42;3.05;;;1.10;;
27383;SDS011;14851;51.166;4.760;2023-04-03T17:09:08;3.05;;;1.30;;